createdAt,value
2019-03-06T00:00:38.793Z,0.00
2019-03-06T00:01:38.769Z,0.00
2019-03-06T00:02:38.787Z,0.00
2019-03-06T00:03:38.760Z,0.00
2019-03-06T00:04:38.741Z,0.00
2019-03-06T00:05:38.731Z,0.00
2019-03-06T00:06:38.741Z,0.00
2019-03-06T00:07:38.740Z,0.00
2019-03-06T00:08:38.721Z,0.00
2019-03-06T00:09:38.751Z,0.00
2019-03-06T00:10:38.672Z,0.00
2019-03-06T00:11:38.665Z,0.00
2019-03-06T00:12:38.654Z,0.00
2019-03-06T00:13:38.700Z,0.00
2019-03-06T00:14:38.609Z,0.00
2019-03-06T00:15:38.613Z,0.00
2019-03-06T00:16:38.614Z,0.00
2019-03-06T00:17:38.598Z,0.00
2019-03-06T00:18:38.627Z,0.00
2019-03-06T00:19:38.618Z,0.00
2019-03-06T00:20:38.568Z,0.00
2019-03-06T00:21:38.566Z,0.00
2019-03-06T00:22:38.560Z,0.00
2019-03-06T00:23:38.528Z,0.00
2019-03-06T00:24:38.570Z,0.00
2019-03-06T00:25:38.512Z,0.00
2019-03-06T00:26:38.554Z,0.00
2019-03-06T00:27:38.504Z,0.00
2019-03-06T00:28:38.483Z,0.00
2019-03-06T00:29:38.465Z,0.00
2019-03-06T00:30:38.455Z,0.00
2019-03-06T00:31:38.486Z,0.00
2019-03-06T00:32:38.444Z,0.00
2019-03-06T00:33:38.425Z,0.00
2019-03-06T00:34:38.409Z,0.00
2019-03-06T00:35:38.417Z,0.00
2019-03-06T00:36:38.409Z,0.00
2019-03-06T00:37:38.454Z,0.00
2019-03-06T00:38:38.390Z,0.00
2019-03-06T00:39:38.360Z,0.00
2019-03-06T00:40:38.353Z,0.00
2019-03-06T00:41:38.356Z,0.00
2019-03-06T00:42:38.340Z,0.00
2019-03-06T00:43:38.311Z,0.00
2019-03-06T00:44:38.306Z,0.00
2019-03-06T00:45:38.292Z,0.00
2019-03-06T00:46:38.290Z,0.00
2019-03-06T00:47:38.755Z,0.00
2019-03-06T00:48:38.313Z,0.00
2019-03-06T00:49:38.288Z,0.00
2019-03-06T00:50:38.247Z,0.00
2019-03-06T00:51:38.227Z,0.00
2019-03-06T00:52:38.220Z,0.00
2019-03-06T00:53:38.206Z,0.00
2019-03-06T00:54:38.208Z,0.00
2019-03-06T00:55:38.192Z,0.00
2019-03-06T00:56:38.179Z,0.00
2019-03-06T00:57:38.160Z,0.00
2019-03-06T00:58:38.165Z,0.00
2019-03-06T00:59:38.159Z,0.00
2019-03-06T01:00:38.194Z,0.00
2019-03-06T01:01:38.180Z,0.00
2019-03-06T01:02:38.120Z,0.00
2019-03-06T01:03:38.125Z,0.00
2019-03-06T01:04:38.132Z,0.00
2019-03-06T01:05:38.152Z,0.00
2019-03-06T01:06:38.160Z,0.00
2019-03-06T01:07:38.075Z,0.00
2019-03-06T01:08:38.038Z,0.00
2019-03-06T01:09:38.067Z,0.00
2019-03-06T01:10:38.049Z,0.00
2019-03-06T01:11:38.043Z,0.00
2019-03-06T01:12:38.018Z,0.00
2019-03-06T01:13:38.070Z,0.00
2019-03-06T01:14:37.971Z,0.00
2019-03-06T01:15:38.006Z,0.00
2019-03-06T01:16:38.016Z,0.00
2019-03-06T01:17:37.921Z,0.00
2019-03-06T01:18:37.977Z,0.00
2019-03-06T01:19:37.949Z,0.00
2019-03-06T01:20:37.951Z,0.00
2019-03-06T01:21:37.937Z,0.00
2019-03-06T01:22:37.999Z,0.00
2019-03-06T01:23:37.876Z,0.00
2019-03-06T01:24:37.865Z,0.00
2019-03-06T01:25:37.883Z,0.00
2019-03-06T01:26:37.882Z,0.00
2019-03-06T01:27:37.837Z,0.00
2019-03-06T01:28:37.818Z,0.00
2019-03-06T01:29:37.849Z,0.00
2019-03-06T01:30:37.783Z,0.00
2019-03-06T01:31:37.841Z,0.00
2019-03-06T01:32:38.739Z,0.00
2019-03-06T01:33:37.753Z,0.00
2019-03-06T01:34:37.785Z,0.00
2019-03-06T01:35:37.775Z,0.00
2019-03-06T01:36:37.770Z,0.00
2019-03-06T01:37:37.736Z,0.00
2019-03-06T01:38:37.742Z,0.00
2019-03-06T01:39:37.719Z,0.00
2019-03-06T01:40:37.695Z,0.00
2019-03-06T01:41:37.698Z,0.00
2019-03-06T01:42:37.681Z,0.00
2019-03-06T01:43:37.702Z,0.00
2019-03-06T01:44:37.639Z,0.00
2019-03-06T01:45:37.651Z,0.00
2019-03-06T01:46:37.659Z,0.00
2019-03-06T01:47:37.635Z,0.00
2019-03-06T01:48:37.706Z,0.00
2019-03-06T01:49:37.598Z,0.00
2019-03-06T01:50:37.615Z,0.00
2019-03-06T01:51:37.603Z,0.00
2019-03-06T01:52:37.574Z,0.00
2019-03-06T01:53:37.555Z,0.00
2019-03-06T01:54:37.544Z,0.00
2019-03-06T01:55:37.593Z,0.00
2019-03-06T01:56:37.524Z,0.00
2019-03-06T01:57:37.563Z,0.00
2019-03-06T01:58:37.522Z,0.00
2019-03-06T01:59:37.519Z,0.00
2019-03-06T02:00:37.478Z,0.00
2019-03-06T02:01:37.721Z,0.00
2019-03-06T02:02:37.470Z,0.00
2019-03-06T02:03:38.970Z,0.00
2019-03-06T02:04:37.447Z,0.00
2019-03-06T02:05:37.439Z,0.00
2019-03-06T02:06:37.428Z,0.00
2019-03-06T02:07:37.441Z,0.00
2019-03-06T02:08:37.406Z,0.00
2019-03-06T02:09:37.413Z,0.00
2019-03-06T02:10:37.404Z,0.00
2019-03-06T02:11:37.365Z,0.00
2019-03-06T02:12:37.386Z,0.00
2019-03-06T02:13:37.343Z,0.00
2019-03-06T02:14:37.366Z,0.00
2019-03-06T02:15:37.318Z,0.00
2019-03-06T02:16:37.361Z,0.00
2019-03-06T02:17:37.302Z,0.00
2019-03-06T02:18:37.332Z,0.00
2019-03-06T02:19:37.278Z,0.00
2019-03-06T02:20:37.320Z,0.00
2019-03-06T02:21:37.262Z,0.00
2019-03-06T02:22:37.270Z,0.00
2019-03-06T02:23:37.264Z,0.00
2019-03-06T02:24:37.228Z,0.00
2019-03-06T02:25:37.244Z,0.00
2019-03-06T02:26:37.228Z,0.00
2019-03-06T02:27:37.192Z,0.00
2019-03-06T02:28:37.214Z,0.00
2019-03-06T02:29:37.144Z,0.00
2019-03-06T02:30:37.165Z,0.00
2019-03-06T02:31:37.167Z,0.00
2019-03-06T02:32:37.169Z,0.00
2019-03-06T02:33:37.160Z,0.00
2019-03-06T02:34:37.097Z,0.00
2019-03-06T02:35:37.109Z,0.00
2019-03-06T02:36:37.098Z,0.00
2019-03-06T02:37:37.114Z,0.00
2019-03-06T02:38:37.126Z,0.00
2019-03-06T02:39:37.070Z,0.00
2019-03-06T02:40:37.083Z,0.00
2019-03-06T02:41:37.072Z,0.00
2019-03-06T02:42:37.059Z,0.00
2019-03-06T02:43:37.117Z,0.00
2019-03-06T02:44:39.876Z,0.00
2019-03-06T02:45:37.040Z,0.00
2019-03-06T02:46:37.061Z,0.00
2019-03-06T02:47:36.964Z,0.00
2019-03-06T02:48:37.103Z,0.00
2019-03-06T02:49:36.981Z,0.00
2019-03-06T02:50:36.970Z,0.00
2019-03-06T02:51:36.914Z,0.00
2019-03-06T02:52:36.972Z,0.00
2019-03-06T02:53:36.932Z,0.00
2019-03-06T02:54:36.933Z,0.00
2019-03-06T02:55:36.941Z,0.00
2019-03-06T02:56:36.949Z,0.00
2019-03-06T02:57:36.896Z,0.00
2019-03-06T02:58:36.852Z,0.00
2019-03-06T02:59:36.846Z,0.00
2019-03-06T03:00:36.883Z,0.00
2019-03-06T03:01:36.858Z,0.00
2019-03-06T03:02:36.878Z,0.00
2019-03-06T03:03:36.825Z,0.00
2019-03-06T03:04:36.809Z,0.00
2019-03-06T03:05:36.769Z,0.00
2019-03-06T03:06:36.769Z,0.00
2019-03-06T03:07:36.772Z,0.00
2019-03-06T03:08:36.774Z,0.00
2019-03-06T03:09:36.763Z,0.00
2019-03-06T03:10:36.725Z,0.00
2019-03-06T03:11:36.729Z,0.00
2019-03-06T03:12:36.701Z,0.00
2019-03-06T03:13:36.702Z,0.00
2019-03-06T03:14:36.681Z,0.00
2019-03-06T03:15:36.709Z,0.00
2019-03-06T03:16:37.226Z,0.00
2019-03-06T03:17:36.666Z,0.00
2019-03-06T03:18:36.655Z,0.00
2019-03-06T03:19:36.647Z,0.00
2019-03-06T03:20:36.681Z,0.00
2019-03-06T03:21:36.677Z,0.00
2019-03-06T03:22:36.599Z,0.00
2019-03-06T03:23:36.580Z,0.00
2019-03-06T03:24:36.567Z,0.00
2019-03-06T03:25:36.617Z,0.00
2019-03-06T03:26:36.552Z,0.00
2019-03-06T03:27:36.554Z,0.00
2019-03-06T03:28:36.551Z,0.00
2019-03-06T03:29:36.524Z,0.00
2019-03-06T03:31:57.151Z,0.00
2019-03-06T03:32:57.077Z,0.00
2019-03-06T03:33:57.152Z,0.00
2019-03-06T03:34:57.083Z,0.00
2019-03-06T03:35:57.139Z,0.00
2019-03-06T03:36:57.040Z,0.00
2019-03-06T03:37:57.018Z,0.00
2019-03-06T03:38:57.008Z,0.00
2019-03-06T03:39:57.003Z,0.00
2019-03-06T03:40:57.022Z,0.00
2019-03-06T03:41:56.980Z,0.00
2019-03-06T03:42:56.958Z,0.00
2019-03-06T03:43:56.960Z,0.00
2019-03-06T03:44:56.998Z,0.00
2019-03-06T03:45:56.977Z,0.00
2019-03-06T03:46:56.935Z,0.00
2019-03-06T03:47:56.928Z,0.00
2019-03-06T03:48:56.894Z,0.00
2019-03-06T03:49:56.914Z,0.00
2019-03-06T03:50:56.875Z,0.00
2019-03-06T03:51:56.917Z,0.00
2019-03-06T03:52:56.845Z,0.00
2019-03-06T03:53:56.848Z,0.00
2019-03-06T03:54:56.835Z,0.00
2019-03-06T03:55:56.828Z,0.00
2019-03-06T03:56:56.851Z,0.00
2019-03-06T03:57:56.818Z,0.00
2019-03-06T03:58:56.815Z,0.00
2019-03-06T03:59:56.782Z,0.00
2019-03-06T04:00:56.831Z,0.00
2019-03-06T04:01:56.799Z,0.00
2019-03-06T04:02:56.771Z,0.00
2019-03-06T04:03:56.795Z,0.00
2019-03-06T04:04:56.769Z,0.00
2019-03-06T04:05:56.741Z,0.00
2019-03-06T04:06:56.753Z,0.00
2019-03-06T04:07:56.731Z,0.00
2019-03-06T04:08:56.695Z,0.00
2019-03-06T04:09:56.688Z,0.00
2019-03-06T04:10:56.690Z,0.00
2019-03-06T04:11:56.716Z,0.00
2019-03-06T04:12:56.677Z,0.00
2019-03-06T04:13:56.643Z,0.00
2019-03-06T04:14:56.624Z,0.00
2019-03-06T04:15:56.610Z,0.00
2019-03-06T04:16:56.642Z,0.00
2019-03-06T04:17:56.596Z,0.00
2019-03-06T04:18:56.584Z,0.00
2019-03-06T04:19:56.575Z,0.00
2019-03-06T04:20:56.606Z,0.00
2019-03-06T04:21:56.621Z,0.00
2019-03-06T04:22:56.557Z,0.00
2019-03-06T04:23:56.591Z,0.00
2019-03-06T04:24:56.518Z,0.00
2019-03-06T04:25:56.508Z,0.00
2019-03-06T04:26:56.496Z,0.00
2019-03-06T04:27:56.531Z,0.00
2019-03-06T04:28:56.529Z,0.00
2019-03-06T04:29:56.461Z,0.00
2019-03-06T04:30:56.432Z,0.00
2019-03-06T04:31:56.489Z,0.00
2019-03-06T04:32:56.460Z,0.00
2019-03-06T04:33:56.445Z,0.00
2019-03-06T04:34:56.415Z,0.00
2019-03-06T04:35:56.413Z,0.00
2019-03-06T04:36:56.426Z,0.00
2019-03-06T04:37:56.450Z,0.00
2019-03-06T04:38:56.370Z,0.00
2019-03-06T04:39:56.385Z,0.00
2019-03-06T04:40:56.395Z,0.00
2019-03-06T04:41:56.386Z,0.00
2019-03-06T04:42:56.410Z,0.00
2019-03-06T04:43:56.364Z,0.00
2019-03-06T04:44:56.348Z,0.00
2019-03-06T04:45:56.307Z,0.00
2019-03-06T04:46:56.298Z,0.00
2019-03-06T04:47:56.297Z,0.00
2019-03-06T04:48:56.240Z,0.00
2019-03-06T04:49:56.271Z,0.00
2019-03-06T04:50:56.322Z,0.00
2019-03-06T04:51:56.252Z,0.00
2019-03-06T04:52:56.281Z,0.00
2019-03-06T04:53:56.209Z,0.00
2019-03-06T04:54:56.185Z,0.00
2019-03-06T04:55:56.217Z,0.00
2019-03-06T04:56:56.170Z,0.00
2019-03-06T04:57:56.165Z,0.00
2019-03-06T04:58:56.186Z,0.00
2019-03-06T04:59:56.138Z,0.00
2019-03-06T05:00:56.127Z,0.00
2019-03-06T05:01:56.178Z,0.00
2019-03-06T05:02:56.110Z,0.00
2019-03-06T05:03:56.121Z,0.00
2019-03-06T05:04:56.082Z,0.00
2019-03-06T05:05:56.070Z,0.00
2019-03-06T05:06:56.098Z,0.00
2019-03-06T05:07:56.048Z,0.00
2019-03-06T05:08:56.097Z,0.00
2019-03-06T05:09:56.024Z,0.00
2019-03-06T05:10:56.079Z,0.00
2019-03-06T05:11:55.988Z,0.00
2019-03-06T05:12:56.030Z,0.00
2019-03-06T05:13:56.015Z,0.00
2019-03-06T05:14:55.997Z,0.00
2019-03-06T05:15:56.067Z,0.00
2019-03-06T05:16:55.978Z,0.00
2019-03-06T05:17:55.978Z,0.00
2019-03-06T05:18:55.937Z,0.00
2019-03-06T05:19:55.920Z,0.00
2019-03-06T05:20:55.911Z,0.00
2019-03-06T05:21:55.896Z,0.00
2019-03-06T05:22:55.892Z,0.00
2019-03-06T05:23:55.919Z,0.00
2019-03-06T05:24:55.872Z,0.00
2019-03-06T05:25:55.865Z,0.00
2019-03-06T05:26:55.874Z,0.00
2019-03-06T05:27:55.899Z,0.00
2019-03-06T05:28:55.853Z,0.00
2019-03-06T05:29:55.856Z,0.00
2019-03-06T05:30:55.801Z,0.00
2019-03-06T05:31:55.826Z,0.00
2019-03-06T05:32:55.786Z,0.00
2019-03-06T05:33:55.798Z,0.00
2019-03-06T05:34:55.826Z,0.00
2019-03-06T05:35:55.752Z,0.00
2019-03-06T05:36:55.768Z,0.00
2019-03-06T05:37:55.756Z,0.00
2019-03-06T05:38:55.751Z,0.00
2019-03-06T05:39:55.774Z,0.00
2019-03-06T05:40:55.731Z,0.00
2019-03-06T05:41:55.704Z,0.00
2019-03-06T05:42:55.703Z,0.00
2019-03-06T05:43:55.707Z,0.00
2019-03-06T05:44:55.654Z,0.00
2019-03-06T05:45:55.676Z,0.00
2019-03-06T05:46:55.634Z,0.00
2019-03-06T05:47:55.698Z,0.00
2019-03-06T05:48:55.646Z,0.00
2019-03-06T05:49:55.636Z,0.00
2019-03-06T05:50:55.617Z,4.00
2019-03-06T05:51:55.576Z,4.00
2019-03-06T05:52:55.606Z,4.00
2019-03-06T05:53:55.591Z,0.00
2019-03-06T05:54:55.538Z,4.00
2019-03-06T05:55:55.541Z,4.00
2019-03-06T05:56:55.532Z,4.00
2019-03-06T05:57:55.546Z,8.00
2019-03-06T05:58:55.606Z,4.00
2019-03-06T05:59:55.505Z,4.00
2019-03-06T06:00:55.553Z,8.00
2019-03-06T06:01:55.505Z,8.00
2019-03-06T06:02:55.465Z,8.00
2019-03-06T06:03:55.476Z,8.00
2019-03-06T06:04:55.466Z,12.00
2019-03-06T06:05:55.442Z,12.00
2019-03-06T06:06:55.451Z,12.00
2019-03-06T06:07:55.452Z,12.00
2019-03-06T06:08:55.427Z,16.00
2019-03-06T06:09:55.422Z,16.00
2019-03-06T06:10:55.653Z,20.00
2019-03-06T06:11:55.391Z,24.00
2019-03-06T06:12:55.369Z,20.00
2019-03-06T06:13:55.361Z,24.00
2019-03-06T06:14:55.366Z,28.00
2019-03-06T06:15:55.322Z,32.00
2019-03-06T06:16:55.672Z,36.00
2019-03-06T06:17:55.390Z,36.00
2019-03-06T06:18:55.284Z,40.00
2019-03-06T06:19:55.313Z,40.00
2019-03-06T06:20:55.314Z,48.00
2019-03-06T06:21:55.242Z,52.00
2019-03-06T06:22:55.275Z,56.00
2019-03-06T06:23:55.345Z,60.00
2019-03-06T06:24:55.349Z,68.00
2019-03-06T06:25:55.266Z,72.00
2019-03-06T06:26:55.217Z,80.00
2019-03-06T06:27:55.211Z,88.00
2019-03-06T06:28:55.182Z,100.00
2019-03-06T06:29:55.289Z,108.00
2019-03-06T06:30:55.192Z,120.00
2019-03-06T06:31:55.192Z,128.00
2019-03-06T06:32:55.153Z,136.00
2019-03-06T06:33:55.133Z,144.00
2019-03-06T06:34:55.195Z,152.00
2019-03-06T06:35:55.106Z,164.00
2019-03-06T06:36:55.127Z,180.00
2019-03-06T06:37:55.086Z,188.00
2019-03-06T06:38:55.075Z,200.00
2019-03-06T06:39:55.067Z,208.00
2019-03-06T06:40:55.090Z,212.00
2019-03-06T06:41:55.040Z,220.00
2019-03-06T06:42:55.039Z,228.00
2019-03-06T06:43:55.020Z,240.00
2019-03-06T06:44:55.013Z,248.00
2019-03-06T06:45:54.991Z,256.00
2019-03-06T06:46:55.016Z,260.00
2019-03-06T06:47:54.966Z,268.00
2019-03-06T06:48:54.962Z,280.00
2019-03-06T06:49:54.933Z,296.00
2019-03-06T06:51:01.748Z,308.00
2019-03-06T06:51:55.994Z,316.00
2019-03-06T06:52:54.928Z,328.00
2019-03-06T06:53:54.914Z,340.00
2019-03-06T06:54:54.894Z,348.00
2019-03-06T06:55:54.874Z,352.00
2019-03-06T06:56:54.879Z,356.00
2019-03-06T06:57:54.897Z,364.00
2019-03-06T06:58:54.869Z,364.00
2019-03-06T06:59:54.839Z,368.00
2019-03-06T07:00:54.829Z,372.00
2019-03-06T07:01:54.820Z,368.00
2019-03-06T07:02:54.845Z,372.00
2019-03-06T07:03:54.782Z,372.00
2019-03-06T07:04:54.781Z,376.00
2019-03-06T07:05:54.771Z,384.00
2019-03-06T07:06:54.748Z,392.00
2019-03-06T07:07:54.803Z,400.00
2019-03-06T07:08:54.744Z,412.00
2019-03-06T07:09:54.753Z,420.00
2019-03-06T07:10:54.737Z,432.00
2019-03-06T07:11:54.705Z,448.00
2019-03-06T07:12:54.696Z,468.00
2019-03-06T07:13:54.761Z,492.00
2019-03-06T07:14:54.676Z,516.00
2019-03-06T07:15:54.655Z,544.00
2019-03-06T07:16:54.634Z,572.00
2019-03-06T07:17:54.699Z,600.00
2019-03-06T07:18:54.613Z,628.00
2019-03-06T07:19:54.671Z,648.00
2019-03-06T07:20:54.599Z,672.00
2019-03-06T07:21:54.602Z,688.00
2019-03-06T07:22:54.566Z,704.00
2019-03-06T07:23:54.605Z,708.00
2019-03-06T07:24:54.544Z,716.00
2019-03-06T07:25:54.551Z,716.00
2019-03-06T07:26:54.536Z,716.00
2019-03-06T07:27:54.562Z,720.00
2019-03-06T07:28:54.545Z,724.00
2019-03-06T07:29:54.526Z,728.00
2019-03-06T07:30:54.516Z,740.00
2019-03-06T07:31:54.478Z,748.00
2019-03-06T07:32:54.498Z,756.00
2019-03-06T07:33:54.555Z,772.00
2019-03-06T07:34:54.451Z,784.00
2019-03-06T07:35:54.438Z,796.00
2019-03-06T07:36:54.432Z,812.00
2019-03-06T07:37:54.413Z,828.00
2019-03-06T07:38:54.477Z,840.00
2019-03-06T07:39:54.391Z,840.00
2019-03-06T07:40:54.384Z,840.00
2019-03-06T07:41:54.414Z,832.00
2019-03-06T07:42:54.372Z,828.00
2019-03-06T07:43:54.350Z,824.00
2019-03-06T07:44:54.336Z,820.00
2019-03-06T07:45:54.356Z,816.00
2019-03-06T07:46:54.353Z,812.00
2019-03-06T07:47:54.308Z,808.00
2019-03-06T07:48:54.276Z,804.00
2019-03-06T07:49:54.310Z,796.00
2019-03-06T07:50:54.266Z,788.00
2019-03-06T07:51:54.259Z,776.00
2019-03-06T07:52:54.259Z,768.00
2019-03-06T07:53:54.241Z,764.00
2019-03-06T07:54:54.278Z,768.00
2019-03-06T07:55:54.233Z,776.00
2019-03-06T07:56:54.266Z,788.00
2019-03-06T07:57:54.214Z,796.00
2019-03-06T07:58:54.183Z,804.00
2019-03-06T07:59:54.217Z,804.00
2019-03-06T08:00:54.174Z,816.00
2019-03-06T08:01:54.187Z,836.00
2019-03-06T08:02:54.136Z,860.00
2019-03-06T08:03:54.115Z,884.00
2019-03-06T08:04:54.119Z,900.00
2019-03-06T08:05:54.160Z,908.00
2019-03-06T08:06:54.118Z,896.00
2019-03-06T08:07:54.155Z,884.00
2019-03-06T08:08:54.115Z,868.00
2019-03-06T08:09:54.109Z,864.00
2019-03-06T08:10:54.102Z,864.00
2019-03-06T08:11:54.093Z,868.00
2019-03-06T08:12:54.072Z,868.00
2019-03-06T08:13:54.023Z,872.00
2019-03-06T08:14:54.023Z,880.00
2019-03-06T08:15:54.322Z,900.00
2019-03-06T08:16:54.015Z,908.00
2019-03-06T08:17:53.972Z,920.00
2019-03-06T08:18:55.943Z,924.00
2019-03-06T08:19:53.946Z,932.00
2019-03-06T08:20:53.925Z,956.00
2019-03-06T08:21:53.959Z,972.00
2019-03-06T08:22:53.937Z,1008.00
2019-03-06T08:23:53.919Z,1044.00
2019-03-06T08:24:53.892Z,1064.00
2019-03-06T08:25:53.929Z,1088.00
2019-03-06T08:26:53.899Z,1120.00
2019-03-06T08:27:53.862Z,1156.00
2019-03-06T08:28:53.852Z,1196.00
2019-03-06T08:29:53.858Z,1236.00
2019-03-06T08:30:53.888Z,1260.00
2019-03-06T08:31:53.854Z,1288.00
2019-03-06T08:32:53.838Z,1316.00
2019-03-06T08:33:53.817Z,1332.00
2019-03-06T08:34:53.807Z,1340.00
2019-03-06T08:35:53.782Z,1336.00
2019-03-06T08:36:53.766Z,1328.00
2019-03-06T08:37:53.763Z,1320.00
2019-03-06T08:38:53.746Z,1316.00
2019-03-06T08:39:53.706Z,1312.00
2019-03-06T08:40:53.690Z,1316.00
2019-03-06T08:41:53.741Z,1320.00
2019-03-06T08:42:53.712Z,1316.00
2019-03-06T08:43:53.693Z,1308.00
2019-03-06T08:44:53.692Z,1292.00
2019-03-06T08:45:53.688Z,1264.00
2019-03-06T08:46:53.666Z,1228.00
2019-03-06T08:47:53.653Z,1208.00
2019-03-06T08:48:53.644Z,1196.00
2019-03-06T08:49:55.223Z,1196.00
2019-03-06T08:50:53.660Z,1192.00
2019-03-06T08:51:53.616Z,1192.00
2019-03-06T08:52:53.577Z,1188.00
2019-03-06T08:53:53.576Z,1180.00
2019-03-06T08:54:53.603Z,1160.00
2019-03-06T08:55:53.557Z,1144.00
2019-03-06T08:56:53.592Z,1140.00
2019-03-06T08:57:53.523Z,1132.00
2019-03-06T08:58:53.540Z,1132.00
2019-03-06T08:59:53.521Z,1140.00
2019-03-06T09:00:53.515Z,1136.00
2019-03-06T09:02:00.440Z,1132.00
2019-03-06T09:02:54.531Z,1152.00
2019-03-06T09:03:53.474Z,1212.00
2019-03-06T09:04:53.449Z,1296.00
2019-03-06T09:05:53.433Z,1368.00
2019-03-06T09:06:53.470Z,1460.00
2019-03-06T09:07:53.519Z,1532.00
2019-03-06T09:08:53.406Z,1612.00
2019-03-06T09:09:53.388Z,1648.00
2019-03-06T09:11:02.282Z,1648.00
2019-03-06T09:11:54.374Z,1624.00
2019-03-06T09:12:53.378Z,1580.00
2019-03-06T09:13:53.422Z,1520.00
2019-03-06T09:14:53.350Z,1468.00
2019-03-06T09:15:53.326Z,1432.00
2019-03-06T09:16:53.338Z,1396.00
2019-03-06T09:17:53.323Z,1360.00
2019-03-06T09:18:53.312Z,1324.00
2019-03-06T09:19:53.313Z,1312.00
2019-03-06T09:20:53.291Z,1324.00
2019-03-06T09:21:53.287Z,1336.00
2019-03-06T09:22:53.262Z,1364.00
2019-03-06T09:23:53.225Z,1408.00
2019-03-06T09:24:53.228Z,1468.00
2019-03-06T09:25:53.231Z,1524.00
2019-03-06T09:26:53.194Z,1588.00
2019-03-06T09:27:53.225Z,1648.00
2019-03-06T09:29:00.701Z,1684.00
2019-03-06T09:29:54.158Z,1708.00
2019-03-06T09:30:53.156Z,1724.00
2019-03-06T09:31:53.168Z,1748.00
2019-03-06T09:32:53.176Z,1780.00
2019-03-06T09:33:53.139Z,1800.00
2019-03-06T09:34:53.132Z,1808.00
2019-03-06T09:35:53.116Z,1820.00
2019-03-06T09:36:53.071Z,1828.00
2019-03-06T09:37:53.062Z,1828.00
2019-03-06T09:38:53.085Z,1832.00
2019-03-06T09:39:53.097Z,1844.00
2019-03-06T09:40:53.021Z,1864.00
2019-03-06T09:41:53.014Z,1884.00
2019-03-06T09:42:53.011Z,1900.00
2019-03-06T09:43:53.021Z,1928.00
2019-03-06T09:44:52.982Z,1956.00
2019-03-06T09:45:52.989Z,1976.00
2019-03-06T09:46:52.979Z,2000.00
2019-03-06T09:47:53.000Z,2040.00
2019-03-06T09:48:52.982Z,2080.00
2019-03-06T09:49:52.952Z,2116.00
2019-03-06T09:50:52.963Z,2140.00
2019-03-06T09:51:52.953Z,2148.00
2019-03-06T09:52:52.974Z,2128.00
2019-03-06T09:53:52.983Z,2104.00
2019-03-06T09:54:54.975Z,2072.00
2019-03-06T09:55:52.871Z,2040.00
2019-03-06T09:56:52.865Z,2008.00
2019-03-06T09:57:52.866Z,1972.00
2019-03-06T09:58:52.913Z,1940.00
2019-03-06T09:59:52.866Z,1912.00
2019-03-06T10:00:52.815Z,1896.00
2019-03-06T10:01:52.801Z,1888.00
2019-03-06T10:02:52.830Z,1888.00
2019-03-06T10:03:52.790Z,1904.00
2019-03-06T10:04:52.828Z,1944.00
2019-03-06T10:05:52.779Z,2040.00
2019-03-06T10:06:52.767Z,2152.00
2019-03-06T10:07:52.742Z,2200.00
2019-03-06T10:08:52.779Z,2224.00
2019-03-06T10:09:59.025Z,2244.00
2019-03-06T10:10:57.525Z,2300.00
2019-03-06T10:11:52.717Z,2284.00
2019-03-06T10:12:52.725Z,2288.00
2019-03-06T10:13:52.731Z,2240.00
2019-03-06T10:14:52.724Z,2204.00
2019-03-06T10:15:52.667Z,2192.00
2019-03-06T10:16:52.675Z,2224.00
2019-03-06T10:17:52.656Z,2224.00
2019-03-06T10:18:52.628Z,2260.00
2019-03-06T10:19:52.650Z,2276.00
2019-03-06T10:20:52.657Z,2316.00
2019-03-06T10:21:52.589Z,2320.00
2019-03-06T10:22:54.851Z,2316.00
2019-03-06T10:23:53.629Z,2304.00
2019-03-06T10:24:52.561Z,2296.00
2019-03-06T10:25:52.560Z,2304.00
2019-03-06T10:26:52.593Z,2316.00
2019-03-06T10:27:52.510Z,2328.00
2019-03-06T10:28:52.517Z,2352.00
2019-03-06T10:29:52.506Z,2364.00
2019-03-06T10:31:01.865Z,2376.00
2019-03-06T10:31:53.503Z,2440.00
2019-03-06T10:32:52.512Z,2492.00
2019-03-06T10:33:52.533Z,2540.00
2019-03-06T10:34:52.447Z,2588.00
2019-03-06T10:35:52.472Z,2680.00
2019-03-06T10:36:52.427Z,2720.00
2019-03-06T10:37:52.416Z,2748.00
2019-03-06T10:38:52.409Z,2740.00
2019-03-06T10:39:52.439Z,2740.00
2019-03-06T10:40:52.422Z,2768.00
2019-03-06T10:41:52.373Z,2812.00
2019-03-06T10:42:52.371Z,2816.00
2019-03-06T10:43:52.351Z,2760.00
2019-03-06T10:44:52.343Z,2732.00
2019-03-06T10:45:52.365Z,2704.00
2019-03-06T10:46:52.328Z,2680.00
2019-03-06T10:47:52.325Z,2624.00
2019-03-06T10:48:52.324Z,2544.00
2019-03-06T10:49:52.273Z,2360.00
2019-03-06T10:50:52.310Z,2112.00
2019-03-06T10:51:52.292Z,1852.00
2019-03-06T10:52:52.275Z,1736.00
2019-03-06T10:53:52.262Z,1704.00
2019-03-06T10:54:52.240Z,1704.00
2019-03-06T10:55:52.320Z,1800.00
2019-03-06T10:56:52.200Z,1836.00
2019-03-06T10:57:52.191Z,1812.00
2019-03-06T10:58:52.197Z,1788.00
2019-03-06T10:59:52.185Z,1788.00
2019-03-06T11:00:52.174Z,1780.00
2019-03-06T11:01:52.204Z,1764.00
2019-03-06T11:02:52.123Z,1768.00
2019-03-06T11:03:52.114Z,1876.00
2019-03-06T11:04:52.127Z,1992.00
2019-03-06T11:05:52.113Z,2124.00
2019-03-06T11:06:52.140Z,2264.00
2019-03-06T11:07:52.087Z,2384.00
2019-03-06T11:08:52.108Z,2480.00
2019-03-06T11:09:52.047Z,2580.00
2019-03-06T11:10:52.079Z,2648.00
2019-03-06T11:11:52.080Z,2620.00
2019-03-06T11:12:52.034Z,2612.00
2019-03-06T11:13:52.025Z,2624.00
2019-03-06T11:14:52.013Z,2648.00
2019-03-06T11:15:55.623Z,2656.00
2019-03-06T11:16:51.982Z,2672.00
2019-03-06T11:17:52.025Z,2700.00
2019-03-06T11:18:51.972Z,2724.00
2019-03-06T11:19:51.964Z,2768.00
2019-03-06T11:20:51.986Z,2792.00
2019-03-06T11:21:51.961Z,2792.00
2019-03-06T11:22:51.973Z,2808.00
2019-03-06T11:23:51.920Z,2808.00
2019-03-06T11:24:51.909Z,2804.00
2019-03-06T11:25:51.901Z,2808.00
2019-03-06T11:26:51.880Z,2804.00
2019-03-06T11:27:51.890Z,2796.00
2019-03-06T11:28:51.863Z,2792.00
2019-03-06T11:29:51.850Z,2808.00
2019-03-06T11:30:51.846Z,2816.00
2019-03-06T11:31:51.842Z,2820.00
2019-03-06T11:32:54.494Z,2800.00
2019-03-06T11:33:51.851Z,2764.00
2019-03-06T11:34:51.812Z,2700.00
2019-03-06T11:35:51.833Z,2656.00
2019-03-06T11:36:51.758Z,2656.00
2019-03-06T11:37:51.872Z,2632.00
2019-03-06T11:38:51.745Z,2620.00
2019-03-06T11:39:51.779Z,2628.00
2019-03-06T11:40:51.763Z,2612.00
2019-03-06T11:41:51.776Z,2640.00
2019-03-06T11:42:51.732Z,2632.00
2019-03-06T11:43:51.769Z,2652.00
2019-03-06T11:44:51.744Z,2656.00
2019-03-06T11:45:51.673Z,2660.00
2019-03-06T11:46:53.074Z,2688.00
2019-03-06T11:47:51.655Z,2720.00
2019-03-06T11:48:51.675Z,2744.00
2019-03-06T11:49:51.663Z,2756.00
2019-03-06T11:50:51.639Z,2728.00
2019-03-06T11:51:51.635Z,2688.00
2019-03-06T11:52:51.659Z,2648.00
2019-03-06T11:53:51.666Z,2648.00
2019-03-06T11:54:51.626Z,2592.00
2019-03-06T11:55:51.578Z,2508.00
2019-03-06T11:56:51.569Z,2448.00
2019-03-06T11:57:51.652Z,2376.00
2019-03-06T11:58:51.545Z,2300.00
2019-03-06T11:59:51.548Z,2316.00
2019-03-06T12:00:51.510Z,2268.00
2019-03-06T12:01:51.540Z,2192.00
2019-03-06T12:02:51.523Z,2144.00
2019-03-06T12:03:51.580Z,2096.00
2019-03-06T12:04:51.504Z,2072.00
2019-03-06T12:05:51.493Z,2072.00
2019-03-06T12:06:51.461Z,2040.00
2019-03-06T12:07:51.463Z,2004.00
2019-03-06T12:08:51.476Z,2036.00
2019-03-06T12:09:51.400Z,2124.00
2019-03-06T12:10:51.469Z,2188.00
2019-03-06T12:11:51.423Z,2240.00
2019-03-06T12:12:51.394Z,2284.00
2019-03-06T12:13:51.385Z,2348.00
2019-03-06T12:14:51.398Z,2388.00
2019-03-06T12:15:51.368Z,2368.00
2019-03-06T12:16:51.362Z,2360.00
2019-03-06T12:17:51.345Z,2360.00
2019-03-06T12:18:51.401Z,2372.00
2019-03-06T12:19:51.329Z,2396.00
2019-03-06T12:20:51.302Z,2424.00
2019-03-06T12:21:51.283Z,2464.00
2019-03-06T12:22:51.289Z,2488.00
2019-03-06T12:23:51.310Z,2452.00
2019-03-06T12:24:51.252Z,2428.00
2019-03-06T12:25:51.244Z,2476.00
2019-03-06T12:26:51.248Z,2516.00
2019-03-06T12:27:51.236Z,2520.00
2019-03-06T12:28:51.262Z,2512.00
2019-03-06T12:29:51.197Z,2492.00
2019-03-06T12:30:51.193Z,2464.00
2019-03-06T12:31:51.178Z,2412.00
2019-03-06T12:32:51.165Z,2380.00
2019-03-06T12:33:51.190Z,2352.00
2019-03-06T12:34:51.189Z,2308.00
2019-03-06T12:35:51.129Z,2288.00
2019-03-06T12:36:51.122Z,2308.00
2019-03-06T12:37:51.109Z,2360.00
2019-03-06T12:38:51.089Z,2392.00
2019-03-06T12:39:51.133Z,2380.00
2019-03-06T12:40:51.081Z,2348.00
2019-03-06T12:41:51.068Z,2360.00
2019-03-06T12:42:51.053Z,2384.00
2019-03-06T12:43:51.051Z,2392.00
2019-03-06T12:44:51.056Z,2396.00